Weather History for KIER - March, 2014

Change the Weather History Date:

Tuesday, March 18, 2014

  Actual Average (KAEX) Record (KAEX)
Temperature  
Mean Temperature 54 °F 60 °F  
Max Temperature 73 °F 71 °F 87 °F (1963)
Min Temperature 35 °F 48 °F 29 °F (1893)
Degree Days  
Heating Degree Days 11 6  
Month to date heating degree days 145  
Since 1 July heating degree days 1810  
Cooling Degree Days 0 1  
Month to date cooling degree days 18  
Year to date cooling degree days 35  
Growing Degree Days 4 (Base 50)    
Moisture  
Dew Point 45 °F    
Average Humidity 75    
Maximum Humidity 99    
Minimum Humidity 46    
Precipitation  
Precipitation 0.00 in 0.15 in 2.90 in (1987)
Month to date precipitation 3.09  
Year to date precipitation 12.77  
Snow  
Snow 0.00 in - 0.00 in ()
Month to date snowfall  
Since 1 July snowfall  
Snow Depth -    
Sea Level Pressure  
Sea Level Pressure 29.85 in    
Wind  
Wind Speed 7 mph (SSE)    
Max Wind Speed 17 mph    
Max Gust Speed 26 mph    
Visibility 10 miles    
Events      
T = Trace of Precipitation, MM = Missing Value Source: NWS Daily Summary

Daily Weather History Graph

Daily Weather History Graph

Search for Another Location

Airport or City:

Trip Planner

Search our weather history database for the weather conditions in past years. The results will help you decide how hot, cold, wet, or windy it might be!

Date:

Astronomy

Mar. 18, 2014 Rise Set
Actual Time 7:18 AM CDT 7:22 PM CDT
Civil Twilight 6:54 AM CDT 7:46 PM CDT
Nautical Twilight 6:26 AM CDT 8:15 PM CDT
Astronomical Twilight 5:57 AM CDT 8:43 PM CDT
Moon 9:30 PM CDT (3/18) 8:16 AM CDT (3/18)
Length of Visible Light 12h 52m
Length of Day
12h 03m
Waning Gibbous, 96% of the Moon is Illuminated
Mar 18
Waning Gibbous
Mar 23
Last Quarter
Mar 30
New
Apr 7
First Quarter
Apr 15
Full

Hourly Weather History & Observations

Time (CDT) Temp. Windchill Dew Point Humidity Pressure Visibility Wind Dir Wind Speed Gust Speed Precip Events Conditions
12:15 AM 41.0 °F 37.1 °F 38.3 °F 90% 29.89 in 10.0 mi SSE 5.8 mph - N/A   Clear
12:35 AM 40.8 °F 37.8 °F 38.1 °F 90% 29.89 in 10.0 mi SE 4.6 mph - N/A   Clear
12:55 AM 40.1 °F 36.9 °F 37.6 °F 91% 29.88 in 10.0 mi SE 4.6 mph - N/A   Clear
1:15 AM 39.2 °F 37.0 °F 37.6 °F 94% 29.87 in 10.0 mi SE 3.5 mph - N/A   Clear
1:35 AM 38.7 °F 35.2 °F 36.9 °F 93% 29.87 in 10.0 mi SE 4.6 mph - N/A   Clear
1:55 AM 38.3 °F 33.9 °F 36.9 °F 95% 29.88 in 10.0 mi SSE 5.8 mph - N/A   Clear
2:15 AM 38.3 °F 33.9 °F 36.9 °F 95% 29.88 in 10.0 mi SSE 5.8 mph - N/A   Clear
2:35 AM 37.2 °F 33.6 °F 36.3 °F 97% 29.87 in 10.0 mi SSE 4.6 mph - N/A   Clear
2:55 AM 37.8 °F 34.2 °F 36.7 °F 96% 29.87 in 10.0 mi South 4.6 mph - N/A   Clear
3:15 AM 37.6 °F 35.1 °F 36.5 °F 96% 29.87 in 10.0 mi South 3.5 mph - N/A   Clear
3:35 AM 36.5 °F 33.9 °F 35.6 °F 97% 29.86 in 10.0 mi SSE 3.5 mph - N/A   Clear
3:55 AM 36.5 °F 33.9 °F 36.0 °F 98% 29.86 in 10.0 mi South 3.5 mph - N/A   Clear
4:15 AM 36.5 °F 32.7 °F 35.8 °F 97% 29.86 in 10.0 mi South 4.6 mph - N/A   Clear
4:35 AM 35.8 °F 33.0 °F 34.9 °F 97% 29.86 in 10.0 mi South 3.5 mph - N/A   Clear
4:55 AM 35.6 °F 32.8 °F 35.1 °F 98% 29.86 in 10.0 mi SSE 3.5 mph - N/A   Clear
5:15 AM 35.6 °F 31.7 °F 35.1 °F 98% 29.86 in 10.0 mi South 4.6 mph - N/A   Clear
5:35 AM 35.2 °F 30.3 °F 34.9 °F 99% 29.86 in 10.0 mi SSE 5.8 mph - N/A   Clear
5:55 AM 35.6 °F 32.8 °F 35.2 °F 99% 29.87 in 10.0 mi SSE 3.5 mph - N/A   Clear
6:15 AM 35.8 °F - 35.2 °F 98% 29.87 in 10.0 mi Calm Calm - N/A   Clear
6:35 AM 36.0 °F 33.3 °F 35.2 °F 97% 29.87 in 10.0 mi ESE 3.5 mph - N/A   Clear
6:55 AM 36.1 °F 32.3 °F 35.2 °F 97% 29.87 in 10.0 mi ESE 4.6 mph - N/A   Clear
7:15 AM 36.1 °F 32.3 °F 35.6 °F 98% 29.88 in 10.0 mi ESE 4.6 mph - N/A   Clear
7:35 AM 36.1 °F 33.5 °F 35.4 °F 97% 29.88 in 10.0 mi ESE 3.5 mph - N/A   Clear
7:55 AM 37.0 °F 34.5 °F 36.0 °F 96% 29.88 in 10.0 mi ESE 3.5 mph - N/A   Clear
8:15 AM 39.6 °F 36.3 °F 37.6 °F 93% 29.89 in 10.0 mi SE 4.6 mph - N/A   Clear
8:35 AM 41.0 °F 35.8 °F 38.1 °F 89% 29.89 in 10.0 mi SE 8.1 mph - N/A   Clear
8:55 AM 42.3 °F 37.3 °F 38.7 °F 87% 29.90 in 10.0 mi SE 8.1 mph - N/A   Clear
9:15 AM 44.4 °F 40.0 °F 40.5 °F 86% 29.89 in 10.0 mi SSE 8.1 mph - N/A   Clear
9:35 AM 45.7 °F 40.2 °F 41.0 °F 84% 29.88 in 10.0 mi SSE 11.5 mph - N/A   Clear
9:55 AM 47.5 °F - 41.9 °F 81% 29.88 in 10.0 mi SSE 10.4 mph - N/A   Clear
10:15 AM 49.6 °F - 42.8 °F 77% 29.87 in 10.0 mi SE 10.4 mph - N/A   Clear
10:35 AM 52.2 °F - 44.1 °F 74% 29.88 in 10.0 mi SSE 8.1 mph - N/A   Clear
10:55 AM 53.4 °F - 44.8 °F 73% 29.86 in 10.0 mi SE 9.2 mph - N/A   Clear
11:15 AM 56.1 °F - 46.9 °F 71% 29.86 in 10.0 mi ESE 9.2 mph - N/A   Clear
11:35 AM 59.2 °F - 47.8 °F 66% 29.85 in 10.0 mi SE 9.2 mph - N/A   Clear
11:55 AM 62.2 °F - 46.9 °F 57% 29.85 in 10.0 mi South 10.4 mph - N/A   Clear
12:15 PM 63.5 °F - 46.6 °F 54% 29.83 in 10.0 mi South 15.0 mph 19.6 mph N/A   Clear
12:35 PM 65.3 °F - 48.0 °F 54% 29.83 in 10.0 mi SSE 12.7 mph 17.3 mph N/A   Clear
12:55 PM 66.2 °F - 46.2 °F 49% 29.82 in 10.0 mi South 12.7 mph 17.3 mph N/A   Clear
1:15 PM 67.6 °F - 48.0 °F 49% 29.82 in 10.0 mi SSE 13.8 mph 17.3 mph N/A   Clear
1:35 PM 68.7 °F - 47.8 °F 47% 29.81 in 10.0 mi South 10.4 mph - N/A   Clear
1:55 PM 69.1 °F - 47.5 °F 46% 29.81 in 10.0 mi South 10.4 mph 18.4 mph N/A   Clear
2:15 PM 70.0 °F - 48.0 °F 46% 29.81 in 10.0 mi South 12.7 mph 17.3 mph N/A   Clear
2:35 PM 70.9 °F - 49.3 °F 46% 29.80 in 10.0 mi SW 10.4 mph 18.4 mph N/A   Clear
2:55 PM 71.6 °F - 49.8 °F 46% 29.80 in 10.0 mi SSW 16.1 mph 20.7 mph N/A   Clear
3:15 PM 71.6 °F - 50.4 °F 47% 29.80 in 10.0 mi SSW 8.1 mph - N/A   Clear
3:35 PM 72.0 °F - 52.0 °F 49% 29.79 in 10.0 mi SSW 9.2 mph 21.9 mph N/A   Clear
3:55 PM 72.5 °F - 52.9 °F 50% 29.78 in 10.0 mi South 17.3 mph 20.7 mph N/A   Clear
4:15 PM 73.4 °F - 53.1 °F 49% 29.78 in 10.0 mi South 16.1 mph 20.7 mph N/A   Clear
4:35 PM 73.4 °F - 52.9 °F 49% 29.77 in 10.0 mi South 12.7 mph 20.7 mph N/A   Clear
4:55 PM 72.5 °F - 52.3 °F 49% 29.76 in 10.0 mi South 17.3 mph 26.5 mph N/A   Clear
5:15 PM 73.4 °F - 52.0 °F 47% 29.76 in 10.0 mi SSW 12.7 mph 21.9 mph N/A   Clear
5:35 PM 72.7 °F - 51.8 °F 48% 29.76 in 10.0 mi SSW 17.3 mph 20.7 mph N/A   Clear
5:55 PM 71.6 °F - 51.6 °F 49% 29.77 in 10.0 mi South 15.0 mph 20.7 mph N/A   Clear
6:15 PM 70.0 °F - 52.7 °F 54% 29.77 in 10.0 mi South 13.8 mph 23.0 mph N/A   Clear
6:35 PM 69.6 °F - 51.3 °F 52% 29.78 in 10.0 mi South 16.1 mph 21.9 mph N/A   Clear
6:55 PM 68.0 °F - 51.8 °F 56% 29.79 in 10.0 mi South 11.5 mph 16.1 mph N/A   Clear
7:15 PM 66.2 °F - 51.6 °F 59% 29.80 in 10.0 mi South 8.1 mph - N/A   Clear
7:35 PM 64.4 °F - 51.6 °F 63% 29.81 in 10.0 mi South 9.2 mph - N/A   Clear
7:55 PM 63.0 °F - 51.8 °F 67% 29.81 in 10.0 mi South 9.2 mph - N/A   Clear
8:15 PM 62.2 °F - 51.8 °F 69% 29.83 in 10.0 mi South 9.2 mph - N/A   Clear
8:35 PM 60.6 °F - 51.8 °F 73% 29.84 in 10.0 mi SSE 8.1 mph - N/A   Clear
8:55 PM 59.0 °F - 52.0 °F 78% 29.85 in 10.0 mi SSE 9.2 mph - N/A   Clear
9:15 PM 60.3 °F - 52.7 °F 76% 29.86 in 10.0 mi South 11.5 mph - N/A   Clear
9:35 PM 60.6 °F - 52.7 °F 75% 29.87 in 10.0 mi South 11.5 mph - N/A   Clear
9:55 PM 60.4 °F - 52.3 °F 75% 29.89 in 10.0 mi South 10.4 mph 16.1 mph N/A   Clear
10:15 PM 59.9 °F - 52.2 °F 76% 29.89 in 10.0 mi South 10.4 mph 16.1 mph N/A   Clear
10:35 PM 59.0 °F - 52.2 °F 78% 29.88 in 10.0 mi South 12.7 mph - N/A   Clear
10:55 PM 58.5 °F - 52.3 °F 80% 29.88 in 10.0 mi South 10.4 mph - N/A   Clear
11:15 PM 57.4 °F - 52.2 °F 83% 29.88 in 10.0 mi South 10.4 mph - N/A   Clear
11:35 PM 57.4 °F - 52.7 °F 84% 29.87 in 10.0 mi South 12.7 mph - N/A   Clear
11:55 PM 57.4 °F - 53.1 °F 85% 29.88 in 10.0 mi South 9.2 mph - N/A   Clear